Port Clinton Carl R Keller Fi, OH

4:27 AM EST on November 18, 2017 (GMT -0500)
Keller

Weather History for KPCW - September, 2013

Change the Weather History Date:

Tuesday, September 17, 2013

  Actual Average (KTTF) Record (KTTF)
Temperature  
Mean Temperature 58 °F -  
Max Temperature 66 °F 71 °F 100 °F (1939)
Min Temperature 51 °F 53 °F 34 °F (1959)
Degree Days  
Heating Degree Days 6    
Growing Degree Days 8 (Base 50)    
Moisture  
Dew Point 48 °F    
Average Humidity 70    
Maximum Humidity 94    
Minimum Humidity 46    
Precipitation  
Precipitation 0.00 in - - ()
Sea Level Pressure  
Sea Level Pressure 30.32 in    
Wind  
Wind Speed 7 mph ()    
Max Wind Speed 14 mph    
Max Gust Speed -    
Visibility 9.9 miles    
Events      
Averages and records for this station are not official NWS values.
T = Trace of Precipitation, MM = Missing Value Source: Averaged Metar Reports

Daily Weather History Graph

Daily Weather History Graph

Search for Another Location

Airport or City:

Trip Planner

Search our weather history database for the weather conditions in past years. The results will help you decide how hot, cold, wet, or windy it might be!

Date:

Astronomy

Sep. 17, 2013 Rise Set
Actual Time 7:14 AM EDT 7:36 PM EDT
Civil Twilight 6:46 AM EDT 8:04 PM EDT
Nautical Twilight 6:13 AM EDT 8:37 PM EDT
Astronomical Twilight 5:40 AM EDT 9:10 PM EDT
Moon 6:23 PM EDT (9/17) 5:06 AM EDT (9/17)
Length of Visible Light 13h 18m
Length of Day
12h 22m
Waxing Gibbous, 96% of the Moon is Illuminated
Sep 17
Waxing Gibbous
Sep 19
Full
Sep 26
Last Quarter
Oct 4
New
Oct 11
First Quarter

Hourly Weather History & Observations

Time (EDT) Temp. Dew Point Humidity Pressure Visibility Wind Dir Wind Speed Gust Speed Precip Events Conditions
12:13 AM 51.8 °F 46.4 °F 82% 30.35 in 10.0 mi NE 8.1 mph - N/A   Clear
12:33 AM 51.8 °F 46.4 °F 82% 30.35 in 10.0 mi NE 8.1 mph - N/A   Clear
12:53 AM 52.0 °F 46.9 °F 83% 30.35 in 10.0 mi NE 5.8 mph - N/A   Clear
1:13 AM 51.8 °F 46.4 °F 82% 30.35 in 10.0 mi NNE 4.6 mph - N/A   Clear
1:33 AM 51.8 °F 46.4 °F 82% 30.35 in 10.0 mi NE 4.6 mph - N/A   Partly Cloudy
1:53 AM 52.0 °F 47.8 °F 86% 30.35 in 10.0 mi NNE 4.6 mph - N/A   Partly Cloudy
2:13 AM 51.8 °F 48.2 °F 88% 30.35 in 10.0 mi NE 5.8 mph - N/A   Scattered Clouds
2:34 AM 53.6 °F 48.2 °F 82% 30.35 in 10.0 mi NNE 4.6 mph - N/A   Mostly Cloudy
2:53 AM 52.9 °F 47.8 °F 83% 30.35 in 10.0 mi NNE 4.6 mph - N/A   Mostly Cloudy
3:13 AM 53.6 °F 48.2 °F 82% 30.36 in 10.0 mi NNE 4.6 mph - N/A   Mostly Cloudy
3:33 AM 53.6 °F 48.2 °F 82% 30.35 in 10.0 mi NNE 4.6 mph - N/A   Mostly Cloudy
3:53 AM 52.9 °F 48.9 °F 86% 30.35 in 10.0 mi NNE 4.6 mph - N/A   Scattered Clouds
4:14 AM 55.4 °F 48.2 °F 77% 30.35 in 10.0 mi NNE 4.6 mph - N/A   Mostly Cloudy
4:33 AM 55.4 °F 50.0 °F 82% 30.35 in 10.0 mi North 4.6 mph - N/A   Mostly Cloudy
4:53 AM 54.0 °F 50.0 °F 86% 30.36 in 10.0 mi NE 3.5 mph - N/A   Mostly Cloudy
5:14 AM 53.6 °F 50.0 °F 88% 30.36 in 10.0 mi East 4.6 mph - N/A   Mostly Cloudy
5:29 AM 55.4 °F 51.8 °F 88% 30.36 in 10.0 mi SE 9.2 mph - N/A   Mostly Cloudy
5:46 AM 55.4 °F 51.8 °F 88% 30.36 in 10.0 mi SSE 8.1 mph - N/A   Overcast
6:13 AM 55.4 °F 48.2 °F 77% 30.37 in 10.0 mi SSE 9.2 mph - N/A   Mostly Cloudy
6:33 AM 53.6 °F 48.2 °F 82% 30.37 in 10.0 mi SSE 9.2 mph - N/A   Scattered Clouds
6:54 AM 54.0 °F 47.8 °F 80% 30.38 in 10.0 mi South 8.1 mph - N/A   Mostly Cloudy
7:13 AM 53.6 °F 46.4 °F 77% 30.38 in 10.0 mi SSE 8.1 mph - N/A   Overcast
7:33 AM 53.6 °F 46.4 °F 77% 30.39 in 10.0 mi South 5.8 mph - N/A   Mostly Cloudy
7:53 AM 54.0 °F 45.9 °F 74% 30.38 in 10.0 mi SSE 4.6 mph - N/A   Partly Cloudy
8:13 AM 53.6 °F 44.6 °F 72% 30.39 in 10.0 mi SE 5.8 mph - N/A   Clear
8:33 AM 55.4 °F 44.6 °F 67% 30.38 in 10.0 mi SE 5.8 mph - N/A   Clear
8:53 AM 56.8 °F 45.9 °F 67% 30.38 in 10.0 mi ESE 6.9 mph - N/A   Clear
9:13 AM 57.2 °F 46.4 °F 67% 30.38 in 10.0 mi ESE 5.8 mph - N/A   Clear
9:33 AM 60.8 °F 48.2 °F 63% 30.38 in 10.0 mi ESE 6.9 mph - N/A   Clear
9:54 AM 61.0 °F 47.8 °F 62% 30.38 in 10.0 mi East 6.9 mph - N/A   Clear
10:13 AM 60.8 °F 48.2 °F 63% 30.38 in 10.0 mi SE 9.2 mph - N/A   Scattered Clouds
10:33 AM 60.8 °F 48.2 °F 63% 30.38 in 10.0 mi SE 10.4 mph - N/A   Partly Cloudy
10:53 AM 61.9 °F 47.8 °F 60% 30.38 in 10.0 mi SE 11.5 mph - N/A   Clear
11:13 AM 62.6 °F 48.2 °F 59% 30.38 in 10.0 mi Variable 6.9 mph - N/A   Clear
11:33 AM 62.6 °F 46.4 °F 55% 30.37 in 10.0 mi ESE 8.1 mph - N/A   Clear
11:53 AM 63.9 °F 45.9 °F 52% 30.37 in 10.0 mi SE 8.1 mph - N/A   Clear
12:13 PM 62.6 °F 44.6 °F 52% 30.36 in 10.0 mi ESE 8.1 mph - N/A   Clear
12:33 PM 64.4 °F 44.6 °F 49% 30.36 in 5.0 mi ESE 8.1 mph - N/A   Haze
12:54 PM 64.9 °F 45.9 °F 50% 30.36 in 10.0 mi East 10.4 mph - N/A   Clear
1:13 PM 64.4 °F 46.4 °F 52% 30.35 in 10.0 mi ENE 12.7 mph - N/A   Clear
1:33 PM 64.4 °F 46.4 °F 52% 30.34 in 10.0 mi NE 12.7 mph - N/A   Clear
1:53 PM 63.9 °F 45.0 °F 50% 30.34 in 10.0 mi ENE 12.7 mph - N/A   Clear
2:13 PM 64.4 °F 44.6 °F 49% 30.33 in 10.0 mi ENE 11.5 mph - N/A   Clear
2:33 PM 64.4 °F 44.6 °F 49% 30.32 in 10.0 mi ENE 12.7 mph - N/A   Clear
2:53 PM 64.9 °F 45.0 °F 48% 30.32 in 10.0 mi ENE 12.7 mph - N/A   Clear
3:13 PM 66.2 °F 44.6 °F 46% 30.31 in 10.0 mi ENE 10.4 mph - N/A   Clear
3:33 PM 66.2 °F 46.4 °F 49% 30.30 in 10.0 mi ENE 10.4 mph - N/A   Clear
3:53 PM 64.9 °F 45.9 °F 50% 30.29 in 10.0 mi ENE 12.7 mph - N/A   Clear
4:13 PM 66.2 °F 46.4 °F 49% 30.28 in 10.0 mi East 13.8 mph - N/A   Clear
4:33 PM 66.2 °F 46.4 °F 49% 30.28 in 10.0 mi East 11.5 mph - N/A   Clear
4:53 PM 64.9 °F 45.9 °F 50% 30.28 in 10.0 mi East 11.5 mph - N/A   Clear
5:13 PM 64.4 °F 46.4 °F 52% 30.27 in 10.0 mi East 11.5 mph - N/A   Clear
5:34 PM 64.4 °F 46.4 °F 52% 30.26 in 10.0 mi East 11.5 mph - N/A   Clear
5:53 PM 63.0 °F 45.9 °F 54% 30.27 in 10.0 mi East 10.4 mph - N/A   Clear
6:14 PM 62.6 °F 48.2 °F 59% 30.26 in 10.0 mi East 10.4 mph - N/A   Clear
6:33 PM 62.6 °F 50.0 °F 63% 30.26 in 10.0 mi East 6.9 mph - N/A   Clear
6:53 PM 63.0 °F 50.0 °F 63% 30.26 in 10.0 mi East 8.1 mph - N/A   Clear
7:14 PM 60.8 °F 50.0 °F 68% 30.25 in 10.0 mi East 6.9 mph - N/A   Clear
7:33 PM 60.8 °F 50.0 °F 68% 30.25 in 10.0 mi East 6.9 mph - N/A   Clear
7:53 PM 59.0 °F 50.9 °F 74% 30.24 in 10.0 mi East 6.9 mph - N/A   Clear
8:13 PM 60.8 °F 51.8 °F 72% 30.24 in 10.0 mi East 8.1 mph - N/A   Clear
8:33 PM 60.8 °F 51.8 °F 72% 30.24 in 10.0 mi East 6.9 mph - N/A   Clear
8:53 PM 59.0 °F 50.9 °F 74% 30.24 in 10.0 mi East 5.8 mph - N/A   Clear
9:13 PM 59.0 °F 51.8 °F 77% 30.23 in 10.0 mi East 6.9 mph - N/A   Clear
9:34 PM 57.2 °F 51.8 °F 82% 30.23 in 10.0 mi East 5.8 mph - N/A   Clear
9:53 PM 55.9 °F 50.9 °F 83% 30.23 in 10.0 mi East 5.8 mph - N/A   Clear
10:13 PM 55.4 °F 51.8 °F 88% 30.23 in 10.0 mi East 6.9 mph - N/A   Clear
10:34 PM 57.2 °F 51.8 °F 82% 30.23 in 10.0 mi East 5.8 mph - N/A   Clear
10:53 PM 55.9 °F 52.0 °F 87% 30.22 in 10.0 mi SE 4.6 mph - N/A   Clear
11:13 PM 55.4 °F 51.8 °F 88% 30.22 in 10.0 mi SE 5.8 mph - N/A   Clear
11:33 PM 55.4 °F 53.6 °F 94% 30.22 in 10.0 mi SE 4.6 mph - N/A   Clear
11:53 PM 56.8 °F 52.9 °F 87% 30.22 in 10.0 mi SSE 4.6 mph - N/A   Clear